createdAt,value
2023-05-01T00:01:30.360Z,97474.16
2023-05-01T00:03:38.859Z,97478.88
2023-05-01T00:05:47.797Z,97473.91
2023-05-01T00:07:55.832Z,97466.91
2023-05-01T00:10:04.149Z,97466.94
2023-05-01T00:12:14.847Z,97463.25
2023-05-01T00:14:23.040Z,97461.13
2023-05-01T00:16:31.642Z,97460.81
2023-05-01T00:18:42.077Z,97453.06
2023-05-01T00:20:50.073Z,97457.72
2023-05-01T00:22:58.222Z,97448.63
2023-05-01T00:25:06.415Z,97446.16
2023-05-01T00:27:19.147Z,97446.66
2023-05-01T00:29:27.137Z,97444.34
2023-05-01T00:31:35.220Z,97440.84
2023-05-01T00:33:43.665Z,97443.78
2023-05-01T00:35:53.055Z,97435.25
2023-05-01T00:38:01.380Z,97438.84
2023-05-01T00:40:20.753Z,97434.44
2023-05-01T00:42:39.405Z,97441.47
2023-05-01T00:44:47.389Z,97438.66
2023-05-01T00:46:56.706Z,97441.66
2023-05-01T00:49:05.004Z,97429.66
2023-05-01T00:51:13.207Z,97427.84
2023-05-01T00:53:22.231Z,97426.44
2023-05-01T00:55:30.639Z,97426.53
2023-05-01T00:57:45.090Z,97416.94
2023-05-01T00:59:53.490Z,97421.94
2023-05-01T01:02:01.875Z,97421.09
2023-05-01T01:04:09.852Z,97411.72
2023-05-01T01:06:36.851Z,97413.72
2023-05-01T01:08:51.074Z,97411.78
2023-05-01T01:11:08.549Z,97408.00
2023-05-01T01:13:30.177Z,97399.81
2023-05-01T01:15:45.517Z,97407.94
2023-05-01T01:18:00.931Z,97403.41
2023-05-01T01:20:38.598Z,97396.72
2023-05-01T01:22:53.963Z,97403.38
2023-05-01T01:25:28.306Z,97391.25
2023-05-01T01:28:01.751Z,97390.00
2023-05-01T01:30:42.588Z,97389.81
2023-05-01T01:33:27.232Z,97389.88
2023-05-01T01:35:40.906Z,97383.44
2023-05-01T01:37:57.318Z,97393.78
2023-05-01T01:40:12.182Z,97391.47
2023-05-01T01:42:26.391Z,97389.97
2023-05-01T01:44:44.543Z,97389.97
2023-05-01T01:46:57.492Z,97391.84
2023-05-01T01:49:09.763Z,97387.75
2023-05-01T01:51:24.904Z,97390.03
2023-05-01T01:53:34.415Z,97385.91
2023-05-01T01:55:44.636Z,97382.97
2023-05-01T01:57:56.066Z,97380.19
2023-05-01T02:00:09.082Z,97383.69
2023-05-01T02:02:23.516Z,97376.78
2023-05-01T02:04:33.068Z,97373.94
2023-05-01T02:06:45.857Z,97371.81
2023-05-01T02:08:56.656Z,97359.16
2023-05-01T02:11:06.607Z,97357.19
2023-05-01T02:13:17.713Z,97354.22
2023-05-01T02:15:28.128Z,97350.41
2023-05-01T02:17:36.767Z,97354.09
2023-05-01T02:19:46.299Z,97345.72
2023-05-01T02:21:59.540Z,97354.31
2023-05-01T02:24:09.189Z,97346.84
2023-05-01T02:26:20.332Z,97350.59
2023-05-01T02:28:31.339Z,97341.13
2023-05-01T02:30:39.334Z,97344.19
2023-05-01T02:32:47.709Z,97337.22
2023-05-01T02:34:55.850Z,97342.03
2023-05-01T02:37:09.344Z,97337.75
2023-05-01T02:39:17.450Z,97334.91
2023-05-01T02:41:25.704Z,97334.97
2023-05-01T02:43:36.679Z,97333.28
2023-05-01T02:45:46.970Z,97333.28
2023-05-01T02:48:00.058Z,97331.59
2023-05-01T02:50:11.064Z,97331.91
2023-05-01T02:52:23.081Z,97330.81
2023-05-01T02:54:38.818Z,97332.22
2023-05-01T02:56:46.854Z,97332.97
2023-05-01T02:58:54.783Z,97330.22
2023-05-01T03:01:04.179Z,97330.09
2023-05-01T03:03:12.278Z,97325.44
2023-05-01T03:05:20.853Z,97327.56
2023-05-01T03:07:35.465Z,97324.78
2023-05-01T03:09:43.533Z,97324.38
2023-05-01T03:11:51.644Z,97329.31
2023-05-01T03:13:59.686Z,97329.38
2023-05-01T03:16:08.646Z,97331.41
2023-05-01T03:18:16.761Z,97324.16
2023-05-01T03:20:25.844Z,97321.28
2023-05-01T03:22:36.814Z,97318.09
2023-05-01T03:24:45.092Z,97314.94
2023-05-01T03:26:53.837Z,97319.50
2023-05-01T03:29:02.184Z,97316.22
2023-05-01T03:31:10.964Z,97316.63
2023-05-01T03:33:27.032Z,97314.28
2023-05-01T03:35:35.105Z,97302.41
2023-05-01T03:37:49.530Z,97309.59
2023-05-01T03:40:19.111Z,97304.03
2023-05-01T03:42:45.716Z,97303.38
2023-05-01T03:45:00.793Z,97308.47
2023-05-01T03:47:10.558Z,97304.75
2023-05-01T03:49:22.707Z,97301.25
2023-05-01T03:51:31.474Z,97297.13
2023-05-01T03:53:42.469Z,97286.91
2023-05-01T03:55:51.803Z,97285.22
2023-05-01T03:58:00.289Z,97285.13
2023-05-01T04:00:10.232Z,97298.78
2023-05-01T04:02:27.962Z,97295.41
2023-05-01T04:04:36.327Z,97287.78
2023-05-01T04:06:44.876Z,97291.28
2023-05-01T04:08:56.108Z,97292.69
2023-05-01T04:11:04.112Z,97300.53
2023-05-01T04:13:13.164Z,97294.56
2023-05-01T04:15:22.869Z,97293.28
2023-05-01T04:17:32.065Z,97300.28
2023-05-01T04:19:41.396Z,97283.72
2023-05-01T04:21:49.581Z,97293.28
2023-05-01T04:24:03.344Z,97296.59
2023-05-01T04:26:11.450Z,97299.78
2023-05-01T04:28:20.127Z,97297.75
2023-05-01T04:30:28.948Z,97297.75
2023-05-01T04:32:37.861Z,97295.34
2023-05-01T04:34:47.517Z,97296.72
2023-05-01T04:36:57.441Z,97295.09
2023-05-01T04:39:08.484Z,97295.88
2023-05-01T04:41:17.220Z,97293.09
2023-05-01T04:43:26.685Z,97295.88
2023-05-01T04:45:35.427Z,97298.75
2023-05-01T04:47:45.872Z,97299.81
2023-05-01T04:49:54.043Z,97304.59
2023-05-01T04:52:02.224Z,97298.09
2023-05-01T04:54:24.401Z,97300.88
2023-05-01T04:56:32.502Z,97305.66
2023-05-01T04:58:42.445Z,97306.59
2023-05-01T05:00:55.012Z,97305.22
2023-05-01T05:03:05.421Z,97305.22
2023-05-01T05:05:13.476Z,97303.19
2023-05-01T05:07:21.973Z,97316.06
2023-05-01T05:10:01.641Z,97316.06
2023-05-01T05:12:09.980Z,97306.69
2023-05-01T05:14:18.195Z,97308.72
2023-05-01T05:16:26.562Z,97309.69
2023-05-01T05:18:34.734Z,97309.78
2023-05-01T05:20:42.853Z,97310.22
2023-05-01T05:22:51.475Z,97309.25
2023-05-01T05:25:07.087Z,97309.69
2023-05-01T05:27:16.117Z,97315.41
2023-05-01T05:29:27.425Z,97314.44
2023-05-01T05:31:35.735Z,97315.28
2023-05-01T05:33:45.124Z,97317.53
2023-05-01T05:35:55.642Z,97310.19
2023-05-01T05:38:09.917Z,97319.22
2023-05-01T05:40:23.356Z,97309.34
2023-05-01T05:42:37.328Z,97312.06
2023-05-01T05:44:47.507Z,97308.56
2023-05-01T05:46:55.782Z,97310.47
2023-05-01T05:49:11.303Z,97321.97
2023-05-01T05:51:19.712Z,97312.28
2023-05-01T05:53:28.230Z,97324.53
2023-05-01T05:55:39.136Z,97316.94
2023-05-01T05:57:48.416Z,97322.38
2023-05-01T05:59:56.648Z,97320.69
2023-05-01T06:02:06.615Z,97327.38
2023-05-01T06:04:15.332Z,97332.69
2023-05-01T06:06:25.021Z,97323.25
2023-05-01T06:08:33.054Z,97325.81
2023-05-01T06:10:46.356Z,97332.09
2023-05-01T06:13:01.150Z,97322.97
2023-05-01T06:15:24.997Z,97322.75
2023-05-01T06:17:36.435Z,97322.31
2023-05-01T06:19:44.623Z,97321.06
2023-05-01T06:21:53.255Z,97323.94
2023-05-01T06:24:01.558Z,97325.81
2023-05-01T06:26:17.216Z,97324.03
2023-05-01T06:28:25.861Z,97320.94
2023-05-01T06:30:33.790Z,97322.63
2023-05-01T06:32:43.842Z,97325.72
2023-05-01T06:34:52.777Z,97328.59
2023-05-01T06:37:01.192Z,97327.22
2023-05-01T06:39:09.216Z,97328.16
2023-05-01T06:41:20.182Z,97331.25
2023-05-01T06:43:30.809Z,97340.06
2023-05-01T06:45:40.200Z,97327.31
2023-05-01T06:47:48.300Z,97335.19
2023-05-01T06:49:57.024Z,97336.91
2023-05-01T06:52:05.360Z,97346.84
2023-05-01T06:54:15.796Z,97353.44
2023-05-01T06:56:26.421Z,97352.69
2023-05-01T06:58:36.979Z,97360.69
2023-05-01T07:00:45.275Z,97355.69
2023-05-01T07:02:53.764Z,97350.78
2023-05-01T07:05:02.962Z,97356.22
2023-05-01T07:07:10.988Z,97343.69
2023-05-01T07:09:18.792Z,97353.69
2023-05-01T07:11:31.259Z,97342.63
2023-05-01T07:13:41.416Z,97343.47
2023-05-01T07:15:49.914Z,97341.47
2023-05-01T07:17:59.316Z,97340.50
2023-05-01T07:20:08.772Z,97343.56
2023-05-01T07:22:17.061Z,97345.38
2023-05-01T07:24:25.318Z,97346.44
2023-05-01T07:26:36.224Z,97339.31
2023-05-01T07:28:44.597Z,97332.09
2023-05-01T07:30:53.111Z,97331.13
2023-05-01T07:33:01.243Z,97336.16
2023-05-01T07:35:10.473Z,97328.91
2023-05-01T07:37:19.062Z,97334.75
2023-05-01T07:39:29.300Z,97326.84
2023-05-01T07:41:39.947Z,97342.47
2023-05-01T07:43:47.929Z,97351.38
2023-05-01T07:46:00.725Z,97344.03
2023-05-01T07:48:09.018Z,97344.88
2023-05-01T07:50:17.284Z,97346.41
2023-05-01T07:52:25.604Z,97343.81
2023-05-01T07:54:33.470Z,97344.41
2023-05-01T07:56:44.449Z,97335.25
2023-05-01T07:58:52.387Z,97329.44
2023-05-01T08:01:00.830Z,97340.19
2023-05-01T08:03:09.143Z,97338.22
2023-05-01T08:05:17.197Z,97343.41
2023-05-01T08:07:25.163Z,97343.91
2023-05-01T08:09:33.108Z,97330.59
2023-05-01T08:11:46.994Z,97354.25
2023-05-01T08:13:55.186Z,97347.91
2023-05-01T08:16:06.989Z,97343.06
2023-05-01T08:18:19.792Z,97339.00
2023-05-01T08:20:28.199Z,97343.13
2023-05-01T08:22:36.181Z,97338.50
2023-05-01T08:24:44.597Z,97339.13
2023-05-01T08:26:55.260Z,97343.75
2023-05-01T08:29:06.197Z,97343.66
2023-05-01T08:31:14.667Z,97339.94
2023-05-01T08:33:24.648Z,97338.88
2023-05-01T08:35:32.609Z,97350.25
2023-05-01T08:37:41.083Z,97344.84
2023-05-01T08:39:49.074Z,97340.78
2023-05-01T08:42:00.384Z,97342.44
2023-05-01T08:44:11.450Z,97342.91
2023-05-01T08:46:28.465Z,97339.75
2023-05-01T08:48:39.672Z,97348.91
2023-05-01T08:50:50.035Z,97345.81
2023-05-01T08:52:59.421Z,97348.31
2023-05-01T08:55:08.454Z,97348.75
2023-05-01T08:57:20.553Z,97350.41
2023-05-01T08:59:32.068Z,97352.28
2023-05-01T09:01:41.470Z,97355.31
2023-05-01T09:03:52.955Z,97352.63
2023-05-01T09:06:05.799Z,97366.19
2023-05-01T09:08:13.780Z,97364.91
2023-05-01T09:10:21.903Z,97375.19
2023-05-01T09:12:35.533Z,97387.31
2023-05-01T09:14:45.425Z,97380.53
2023-05-01T09:16:53.581Z,97395.94
2023-05-01T09:19:02.184Z,97393.38
2023-05-01T09:21:10.659Z,97395.41
2023-05-01T09:23:20.469Z,97396.31
2023-05-01T09:25:31.623Z,97397.00
2023-05-01T09:27:42.228Z,97407.34
2023-05-01T09:29:51.376Z,97406.16
2023-05-01T09:32:16.835Z,97408.38
2023-05-01T09:34:25.139Z,97407.72
2023-05-01T09:36:35.183Z,97401.53
2023-05-01T09:38:46.739Z,97394.94
2023-05-01T09:40:56.960Z,97406.13
2023-05-01T09:43:08.288Z,97408.88
2023-05-01T09:45:18.191Z,97398.56
2023-05-01T09:47:28.080Z,97407.00
2023-05-01T09:49:51.134Z,97390.13
2023-05-01T09:52:16.971Z,97410.53
2023-05-01T09:54:25.324Z,97411.22
2023-05-01T09:56:35.265Z,97408.00
2023-05-01T09:58:45.814Z,97400.31
2023-05-01T10:00:53.736Z,97405.19
2023-05-01T10:03:15.489Z,97407.22
2023-05-01T10:05:23.596Z,97400.66
2023-05-01T10:07:32.723Z,97381.69
2023-05-01T10:09:41.522Z,97370.91
2023-05-01T10:11:53.863Z,97361.97
2023-05-01T10:14:14.215Z,97375.66
2023-05-01T10:16:33.178Z,97387.78
2023-05-01T10:18:41.186Z,97383.91
2023-05-01T10:20:49.438Z,97388.78
2023-05-01T10:22:58.639Z,97390.28
2023-05-01T10:25:10.422Z,97383.50
2023-05-01T10:27:22.560Z,97363.91
2023-05-01T10:29:34.743Z,97358.88
2023-05-01T10:31:42.954Z,97357.13
2023-05-01T10:33:51.994Z,97354.19
2023-05-01T10:36:03.549Z,97354.28
2023-05-01T10:38:17.001Z,97354.31
2023-05-01T10:40:50.193Z,97348.97
2023-05-01T10:43:21.208Z,97360.78
2023-05-01T10:45:35.925Z,97350.16
2023-05-01T10:47:50.163Z,97351.72
2023-05-01T10:50:09.359Z,97344.19
2023-05-01T10:52:17.682Z,97360.72
2023-05-01T10:54:30.174Z,97354.56
2023-05-01T10:56:48.019Z,97359.84
2023-05-01T10:59:03.455Z,97359.31
2023-05-01T11:01:40.083Z,97376.47
2023-05-01T11:03:48.423Z,97355.47
2023-05-01T11:06:09.257Z,97342.44
2023-05-01T11:08:33.281Z,97359.19
2023-05-01T11:10:41.608Z,97355.44
2023-05-01T11:12:54.300Z,97345.91
2023-05-01T11:15:09.858Z,97346.00
2023-05-01T11:17:50.796Z,97353.19
2023-05-01T11:19:58.812Z,97346.88
2023-05-01T11:22:15.520Z,97364.13
2023-05-01T11:24:23.534Z,97351.78
2023-05-01T11:26:32.707Z,97340.91
2023-05-01T11:28:42.669Z,97336.91
2023-05-01T11:30:50.891Z,97336.56
2023-05-01T11:33:01.812Z,97344.91
2023-05-01T11:35:11.564Z,97340.47
2023-05-01T11:37:19.418Z,97336.16
2023-05-01T11:39:27.511Z,97331.13
2023-05-01T11:41:35.689Z,97349.53
2023-05-01T11:43:54.075Z,97340.34
2023-05-01T11:46:06.194Z,97343.69
2023-05-01T11:48:20.957Z,97334.31
2023-05-01T11:50:36.107Z,97341.06
2023-05-01T11:52:49.638Z,97347.25
2023-05-01T11:54:57.607Z,97338.59
2023-05-01T11:57:07.119Z,97331.13
2023-05-01T11:59:16.704Z,97328.84
2023-05-01T12:01:24.688Z,97344.06
2023-05-01T12:03:44.389Z,97327.63
2023-05-01T12:05:54.738Z,97337.75
2023-05-01T12:08:21.426Z,97321.19
2023-05-01T12:10:29.553Z,97329.00
2023-05-01T12:12:37.791Z,97321.56
2023-05-01T12:14:48.351Z,97320.91
2023-05-01T12:16:57.296Z,97325.94
2023-05-01T12:19:07.980Z,97334.34
2023-05-01T12:21:20.056Z,97328.31
2023-05-01T12:23:35.028Z,97324.50
2023-05-01T12:25:43.796Z,97325.13
2023-05-01T12:27:53.505Z,97333.66
2023-05-01T12:30:01.352Z,97328.69
2023-05-01T12:32:11.244Z,97340.88
2023-05-01T12:34:33.051Z,97323.97
2023-05-01T12:36:41.182Z,97339.63
2023-05-01T12:38:58.998Z,97328.22
2023-05-01T12:41:09.016Z,97324.72
2023-05-01T12:43:17.237Z,97320.81
2023-05-01T12:45:25.549Z,97317.13
2023-05-01T12:47:40.324Z,97318.09
2023-05-01T12:49:50.925Z,97327.34
2023-05-01T12:52:00.594Z,97328.13
2023-05-01T12:54:08.847Z,97328.88
2023-05-01T12:56:26.132Z,97333.28
2023-05-01T12:58:41.915Z,97331.78
2023-05-01T13:00:52.163Z,97343.69
2023-05-01T13:03:06.518Z,97324.31
2023-05-01T13:05:17.172Z,97321.31
2023-05-01T13:07:25.331Z,97324.69
2023-05-01T13:09:33.917Z,97324.72
2023-05-01T13:11:42.614Z,97333.41
2023-05-01T13:13:53.719Z,97320.34
2023-05-01T13:16:13.035Z,97329.19
2023-05-01T13:18:21.272Z,97324.75
2023-05-01T13:20:32.875Z,97324.28
2023-05-01T13:22:42.251Z,97328.00
2023-05-01T13:24:51.350Z,97316.25
2023-05-01T13:27:04.351Z,97327.06
2023-05-01T13:29:17.999Z,97326.41
2023-05-01T13:31:26.092Z,97319.03
2023-05-01T13:33:35.702Z,97307.97
2023-05-01T13:35:46.440Z,97305.66
2023-05-01T13:37:58.096Z,97313.97
2023-05-01T13:40:06.800Z,97309.03
2023-05-01T13:42:15.890Z,97308.84
2023-05-01T13:44:25.600Z,97299.09
2023-05-01T13:46:33.931Z,97302.41
2023-05-01T13:48:42.708Z,97303.78
2023-05-01T13:50:54.861Z,97302.94
2023-05-01T13:53:04.195Z,97301.00
2023-05-01T13:55:15.061Z,97300.44
2023-05-01T13:57:23.391Z,97301.06
2023-05-01T13:59:39.816Z,97299.53
2023-05-01T14:01:49.327Z,97311.78
2023-05-01T14:04:02.034Z,97305.81
2023-05-01T14:06:16.536Z,97303.84
2023-05-01T14:08:27.196Z,97311.75
2023-05-01T14:10:35.481Z,97312.84
2023-05-01T14:12:43.603Z,97310.41
2023-05-01T14:14:53.634Z,97313.94
2023-05-01T14:17:01.603Z,97304.84
2023-05-01T14:19:09.753Z,97302.72
2023-05-01T14:21:21.598Z,97289.00
2023-05-01T14:23:29.611Z,97287.56
2023-05-01T14:25:37.730Z,97276.97
2023-05-01T14:27:45.726Z,97270.78
2023-05-01T14:29:53.714Z,97255.50
2023-05-01T14:32:06.841Z,97257.19
2023-05-01T14:34:18.490Z,97260.53
2023-05-01T14:36:31.267Z,97274.28
2023-05-01T14:38:43.448Z,97278.19
2023-05-01T14:40:52.372Z,97286.34
2023-05-01T14:43:01.901Z,97288.63
2023-05-01T14:45:14.208Z,97297.94
2023-05-01T14:47:25.354Z,97295.72
2023-05-01T14:49:33.505Z,97310.91
2023-05-01T14:51:44.314Z,97302.97
2023-05-01T14:53:52.252Z,97303.16
2023-05-01T14:56:00.437Z,97303.00
2023-05-01T14:58:08.450Z,97310.84
2023-05-01T15:00:18.177Z,97303.06
2023-05-01T15:02:26.461Z,97293.50
2023-05-01T15:04:34.534Z,97298.88
2023-05-01T15:06:45.280Z,97306.94
2023-05-01T15:08:53.399Z,97304.16
2023-05-01T15:11:01.326Z,97302.72
2023-05-01T15:13:09.582Z,97303.56
2023-05-01T15:15:17.691Z,97299.56
2023-05-01T15:17:25.724Z,97301.69
2023-05-01T15:19:34.660Z,97303.22
2023-05-01T15:21:45.449Z,97311.50
2023-05-01T15:23:53.405Z,97316.72
2023-05-01T15:26:03.778Z,97312.69
2023-05-01T15:28:12.282Z,97306.38
2023-05-01T15:30:22.798Z,97297.44
2023-05-01T15:32:30.895Z,97304.03
2023-05-01T15:34:39.738Z,97306.97
2023-05-01T15:36:52.674Z,97314.16
2023-05-01T15:39:00.709Z,97304.19
2023-05-01T15:41:08.801Z,97292.91
2023-05-01T15:43:17.202Z,97284.19
2023-05-01T15:45:25.227Z,97270.47
2023-05-01T15:47:33.363Z,97267.38
2023-05-01T15:49:41.668Z,97261.69
2023-05-01T15:51:52.293Z,97260.72
2023-05-01T15:54:00.593Z,97270.94
2023-05-01T15:56:10.000Z,97263.03
2023-05-01T15:58:19.226Z,97258.84
2023-05-01T16:00:27.463Z,97263.44
2023-05-01T16:02:35.931Z,97266.13
2023-05-01T16:04:44.196Z,97269.88
2023-05-01T16:06:54.887Z,97278.25
2023-05-01T16:09:03.125Z,97277.31
2023-05-01T16:11:13.176Z,97287.47
2023-05-01T16:13:21.114Z,97293.72
2023-05-01T16:15:29.490Z,97301.66
2023-05-01T16:17:46.940Z,97318.59
2023-05-01T16:19:55.643Z,97305.00
2023-05-01T16:22:09.720Z,97297.66
2023-05-01T16:24:17.928Z,97311.66
2023-05-01T16:26:28.375Z,97308.78
2023-05-01T16:28:39.309Z,97312.56
2023-05-01T16:30:48.922Z,97322.25
2023-05-01T16:32:58.703Z,97324.38
2023-05-01T16:35:07.397Z,97325.91
2023-05-01T16:37:20.318Z,97327.44
2023-05-01T16:39:32.406Z,97328.41
2023-05-01T16:41:51.169Z,97329.50
2023-05-01T16:44:01.403Z,97329.13
2023-05-01T16:46:12.187Z,97321.03
2023-05-01T16:48:34.458Z,97319.94
2023-05-01T16:50:46.792Z,97320.06
2023-05-01T16:53:07.031Z,97321.13
2023-05-01T16:55:17.830Z,97314.06
2023-05-01T16:57:31.518Z,97322.03
2023-05-01T16:59:43.935Z,97314.72
2023-05-01T17:01:58.835Z,97310.47
2023-05-01T17:04:11.485Z,97310.13
2023-05-01T17:06:24.990Z,97309.31
2023-05-01T17:08:47.195Z,97323.88
2023-05-01T17:10:59.126Z,97324.00
2023-05-01T17:13:12.374Z,97325.94
2023-05-01T17:15:24.397Z,97338.94
2023-05-01T17:17:46.192Z,97327.63
2023-05-01T17:19:55.725Z,97332.72
2023-05-01T17:22:18.949Z,97321.75
2023-05-01T17:24:32.943Z,97324.06
2023-05-01T17:26:44.914Z,97332.09
2023-05-01T17:28:53.189Z,97335.75
2023-05-01T17:31:04.578Z,97328.38
2023-05-01T17:33:16.110Z,97323.03
2023-05-01T17:35:27.050Z,97314.53
2023-05-01T17:37:47.557Z,97319.50
2023-05-01T17:39:58.171Z,97314.88
2023-05-01T17:42:06.682Z,97307.34
2023-05-01T17:44:29.113Z,97307.13
2023-05-01T17:46:41.705Z,97299.34
2023-05-01T17:48:49.686Z,97301.06
2023-05-01T17:51:00.393Z,97293.41
2023-05-01T17:53:09.915Z,97296.09
2023-05-01T17:55:20.605Z,97295.34
2023-05-01T17:57:38.816Z,97296.78
2023-05-01T17:59:51.890Z,97303.94
2023-05-01T18:02:09.673Z,97302.00
2023-05-01T18:04:22.069Z,97308.56
2023-05-01T18:06:30.179Z,97313.81
2023-05-01T18:08:40.372Z,97316.97
2023-05-01T18:10:51.309Z,97310.75
2023-05-01T18:12:59.430Z,97309.56
2023-05-01T18:15:08.027Z,97316.72
2023-05-01T18:17:18.543Z,97317.78
2023-05-01T18:19:26.592Z,97309.09
2023-05-01T18:21:35.115Z,97305.41
2023-05-01T18:23:43.809Z,97305.63
2023-05-01T18:25:54.546Z,97299.94
2023-05-01T18:28:10.138Z,97304.78
2023-05-01T18:30:18.713Z,97317.19
2023-05-01T18:32:39.298Z,97317.09
2023-05-01T18:34:55.118Z,97326.47
2023-05-01T18:37:04.357Z,97322.25
2023-05-01T18:39:15.573Z,97326.97
2023-05-01T18:41:26.664Z,97325.63
2023-05-01T18:43:36.317Z,97332.19
2023-05-01T18:45:47.075Z,97324.66
2023-05-01T18:48:04.510Z,97324.56
2023-05-01T18:50:13.704Z,97333.28
2023-05-01T18:52:21.978Z,97323.59
2023-05-01T18:54:30.110Z,97334.97
2023-05-01T18:57:03.830Z,97332.41
2023-05-01T18:59:12.096Z,97339.41
2023-05-01T19:01:29.437Z,97341.81
2023-05-01T19:03:41.189Z,97336.94
2023-05-01T19:05:49.396Z,97343.38
2023-05-01T19:08:17.619Z,97339.59
2023-05-01T19:10:26.672Z,97339.38
2023-05-01T19:12:42.527Z,97342.97
2023-05-01T19:14:53.280Z,97352.06
2023-05-01T19:17:05.496Z,97343.47
2023-05-01T19:19:13.468Z,97348.53
2023-05-01T19:21:21.705Z,97344.88
2023-05-01T19:23:35.056Z,97349.56
2023-05-01T19:25:55.280Z,97340.97
2023-05-01T19:28:14.164Z,97347.00
2023-05-01T19:30:23.590Z,97354.00
2023-05-01T19:32:46.304Z,97348.72
2023-05-01T19:34:55.291Z,97336.41
2023-05-01T19:37:04.070Z,97341.00
2023-05-01T19:39:13.102Z,97338.34
2023-05-01T19:41:21.003Z,97340.03
2023-05-01T19:43:31.979Z,97348.53
2023-05-01T19:45:40.164Z,97346.59
2023-05-01T19:47:48.976Z,97355.44
2023-05-01T19:49:57.040Z,97355.31
2023-05-01T19:52:05.577Z,97358.09
2023-05-01T19:54:21.794Z,97363.97
2023-05-01T19:56:30.313Z,97364.38
2023-05-01T19:58:51.486Z,97364.72
2023-05-01T20:01:09.997Z,97365.41
2023-05-01T20:03:20.877Z,97366.91
2023-05-01T20:05:35.692Z,97365.94
2023-05-01T20:07:50.409Z,97367.13
2023-05-01T20:09:58.579Z,97369.06
2023-05-01T20:12:08.369Z,97370.81
2023-05-01T20:14:19.199Z,97368.38
2023-05-01T20:16:28.020Z,97377.94
2023-05-01T20:18:36.115Z,97379.44
2023-05-01T20:20:44.193Z,97383.47
2023-05-01T20:22:55.056Z,97381.00
2023-05-01T20:25:03.009Z,97388.34
2023-05-01T20:27:11.516Z,97399.81
2023-05-01T20:29:21.972Z,97405.03
2023-05-01T20:31:30.004Z,97406.19
2023-05-01T20:33:38.018Z,97408.34
2023-05-01T20:35:46.208Z,97411.75
2023-05-01T20:37:54.443Z,97412.28
2023-05-01T20:40:02.724Z,97413.06
2023-05-01T20:42:10.860Z,97415.06
2023-05-01T20:44:22.079Z,97409.53
2023-05-01T20:46:30.542Z,97410.72
2023-05-01T20:48:38.590Z,97408.25
2023-05-01T20:50:48.538Z,97406.69
2023-05-01T20:52:57.325Z,97406.66
2023-05-01T20:55:06.130Z,97404.94
2023-05-01T20:57:14.250Z,97408.25
2023-05-01T20:59:24.893Z,97403.28
2023-05-01T21:01:33.921Z,97403.59
2023-05-01T21:03:43.659Z,97407.47
2023-05-01T21:05:51.919Z,97412.22
2023-05-01T21:08:01.020Z,97410.00
2023-05-01T21:10:10.000Z,97405.09
2023-05-01T21:12:19.217Z,97402.75
2023-05-01T21:14:31.377Z,97405.75
2023-05-01T21:16:39.584Z,97406.28
2023-05-01T21:18:47.986Z,97405.97
2023-05-01T21:20:56.038Z,97408.41
2023-05-01T21:23:05.039Z,97409.38
2023-05-01T21:25:13.569Z,97400.22
2023-05-01T21:27:22.522Z,97406.19
2023-05-01T21:29:33.501Z,97398.59
2023-05-01T21:31:42.241Z,97395.03
2023-05-01T21:33:50.800Z,97395.09
2023-05-01T21:36:00.100Z,97392.13
2023-05-01T21:38:08.572Z,97395.56
2023-05-01T21:40:17.237Z,97393.53
2023-05-01T21:42:25.543Z,97394.38
2023-05-01T21:44:36.362Z,97397.75
2023-05-01T21:46:44.420Z,97400.63
2023-05-01T21:48:53.560Z,97392.75
2023-05-01T21:51:01.906Z,97392.22
2023-05-01T21:53:10.281Z,97403.09
2023-05-01T21:55:21.858Z,97400.63
2023-05-01T21:57:29.933Z,97398.59
2023-05-01T21:59:41.947Z,97395.81
2023-05-01T22:01:49.893Z,97397.72
2023-05-01T22:03:59.055Z,97401.41
2023-05-01T22:06:07.734Z,97398.44
2023-05-01T22:08:17.998Z,97399.63
2023-05-01T22:10:26.343Z,97406.81
2023-05-01T22:12:34.246Z,97408.06
2023-05-01T22:14:47.550Z,97398.44
2023-05-01T22:16:56.467Z,97401.84
2023-05-01T22:19:04.423Z,97404.78
2023-05-01T22:21:12.616Z,97408.22
2023-05-01T22:23:20.494Z,97422.34
2023-05-01T22:25:28.764Z,97415.94
2023-05-01T22:27:37.986Z,97424.75
2023-05-01T22:29:49.142Z,97427.28
2023-05-01T22:31:57.108Z,97424.00
2023-05-01T22:34:05.623Z,97438.81
2023-05-01T22:36:13.777Z,97435.50
2023-05-01T22:38:21.965Z,97430.25
2023-05-01T22:40:31.517Z,97442.22
2023-05-01T22:42:39.527Z,97444.75
2023-05-01T22:44:50.591Z,97448.59
2023-05-01T22:46:59.606Z,97450.69
2023-05-01T22:49:10.274Z,97452.97
2023-05-01T22:51:18.226Z,97456.75
2023-05-01T22:53:29.360Z,97457.81
2023-05-01T22:55:38.315Z,97462.63
2023-05-01T22:57:46.222Z,97464.88
2023-05-01T22:59:57.878Z,97460.28
2023-05-01T23:02:06.713Z,97460.66
2023-05-01T23:04:15.678Z,97463.88
2023-05-01T23:06:24.586Z,97465.22
2023-05-01T23:08:33.839Z,97463.53
2023-05-01T23:10:44.933Z,97460.94
2023-05-01T23:12:52.852Z,97467.09
2023-05-01T23:15:03.805Z,97470.44
2023-05-01T23:17:11.659Z,97466.19
2023-05-01T23:19:24.498Z,97465.81
2023-05-01T23:21:32.962Z,97471.69
2023-05-01T23:23:46.223Z,97461.47
2023-05-01T23:25:54.986Z,97462.03
2023-05-01T23:28:03.470Z,97462.88
2023-05-01T23:30:16.982Z,97468.28
2023-05-01T23:32:28.198Z,97467.78
2023-05-01T23:34:37.283Z,97467.78
2023-05-01T23:36:47.939Z,97477.09
2023-05-01T23:38:56.003Z,97483.34
2023-05-01T23:41:03.980Z,97477.63
2023-05-01T23:43:13.333Z,97470.72
2023-05-01T23:45:23.886Z,97473.19
2023-05-01T23:47:32.993Z,97480.69
2023-05-01T23:49:41.051Z,97476.63
2023-05-01T23:51:49.023Z,97471.03
2023-05-01T23:53:57.065Z,97472.31
2023-05-01T23:56:05.099Z,97474.78
2023-05-01T23:58:13.360Z,97477.09
